sensor_id;sensor_type;location;lat;lon;timestamp;P1;durP1;ratioP1;P2;durP2;ratioP2
53873;SDS011;62246;50.938;4.058;2022-12-07T00:01:12;22.27;;;12.02;;
53873;SDS011;62246;50.938;4.058;2022-12-07T00:03:39;25.00;;;13.15;;
53873;SDS011;62246;50.938;4.058;2022-12-07T00:06:06;21.20;;;12.32;;
53873;SDS011;62246;50.938;4.058;2022-12-07T00:08:33;26.27;;;13.65;;
53873;SDS011;62246;50.938;4.058;2022-12-07T00:11:06;25.55;;;12.90;;
53873;SDS011;62246;50.938;4.058;2022-12-07T00:13:37;28.25;;;13.70;;
53873;SDS011;62246;50.938;4.058;2022-12-07T00:16:04;25.05;;;12.77;;
53873;SDS011;62246;50.938;4.058;2022-12-07T00:18:32;22.13;;;10.93;;
53873;SDS011;62246;50.938;4.058;2022-12-07T00:21:02;21.25;;;11.38;;
53873;SDS011;62246;50.938;4.058;2022-12-07T00:23:29;20.80;;;9.80;;
53873;SDS011;62246;50.938;4.058;2022-12-07T00:25:55;20.17;;;10.55;;
53873;SDS011;62246;50.938;4.058;2022-12-07T00:28:20;20.63;;;10.55;;
53873;SDS011;62246;50.938;4.058;2022-12-07T00:30:46;18.13;;;9.73;;
53873;SDS011;62246;50.938;4.058;2022-12-07T00:33:11;23.50;;;11.15;;
53873;SDS011;62246;50.938;4.058;2022-12-07T00:35:37;23.67;;;10.82;;
53873;SDS011;62246;50.938;4.058;2022-12-07T00:38:02;27.42;;;12.35;;
53873;SDS011;62246;50.938;4.058;2022-12-07T00:40:28;25.75;;;10.43;;
53873;SDS011;62246;50.938;4.058;2022-12-07T00:42:53;30.58;;;11.63;;
53873;SDS011;62246;50.938;4.058;2022-12-07T00:45:19;30.65;;;11.75;;
53873;SDS011;62246;50.938;4.058;2022-12-07T00:47:44;24.63;;;11.00;;
53873;SDS011;62246;50.938;4.058;2022-12-07T00:50:10;26.17;;;10.63;;
53873;SDS011;62246;50.938;4.058;2022-12-07T00:52:35;21.77;;;9.52;;
53873;SDS011;62246;50.938;4.058;2022-12-07T00:55:01;26.38;;;10.75;;
53873;SDS011;62246;50.938;4.058;2022-12-07T00:57:26;24.45;;;10.32;;
53873;SDS011;62246;50.938;4.058;2022-12-07T00:59:52;23.63;;;10.50;;
53873;SDS011;62246;50.938;4.058;2022-12-07T01:02:22;19.90;;;9.73;;
53873;SDS011;62246;50.938;4.058;2022-12-07T01:04:48;23.40;;;10.52;;
53873;SDS011;62246;50.938;4.058;2022-12-07T01:07:13;20.50;;;9.05;;
53873;SDS011;62246;50.938;4.058;2022-12-07T01:09:38;24.15;;;9.13;;
53873;SDS011;62246;50.938;4.058;2022-12-07T01:12:04;17.02;;;9.38;;
53873;SDS011;62246;50.938;4.058;2022-12-07T01:14:30;16.50;;;8.20;;
53873;SDS011;62246;50.938;4.058;2022-12-07T01:16:55;20.33;;;8.52;;
53873;SDS011;62246;50.938;4.058;2022-12-07T01:19:21;18.05;;;8.60;;
53873;SDS011;62246;50.938;4.058;2022-12-07T01:21:46;16.65;;;8.38;;
53873;SDS011;62246;50.938;4.058;2022-12-07T01:24:12;15.70;;;7.78;;
53873;SDS011;62246;50.938;4.058;2022-12-07T01:26:37;14.10;;;6.95;;
53873;SDS011;62246;50.938;4.058;2022-12-07T01:29:03;11.40;;;6.75;;
53873;SDS011;62246;50.938;4.058;2022-12-07T01:31:29;14.48;;;7.90;;
53873;SDS011;62246;50.938;4.058;2022-12-07T01:33:55;15.38;;;7.68;;
53873;SDS011;62246;50.938;4.058;2022-12-07T01:36:23;13.35;;;6.72;;
53873;SDS011;62246;50.938;4.058;2022-12-07T01:38:53;15.32;;;6.63;;
53873;SDS011;62246;50.938;4.058;2022-12-07T01:41:21;14.85;;;6.50;;
53873;SDS011;62246;50.938;4.058;2022-12-07T01:46:41;11.68;;;6.72;;
53873;SDS011;62246;50.938;4.058;2022-12-07T01:49:18;17.40;;;7.45;;
53873;SDS011;62246;50.938;4.058;2022-12-07T01:52:13;14.88;;;7.18;;
53873;SDS011;62246;50.938;4.058;2022-12-07T01:54:39;16.75;;;7.72;;
53873;SDS011;62246;50.938;4.058;2022-12-07T01:57:04;17.92;;;7.75;;
53873;SDS011;62246;50.938;4.058;2022-12-07T01:59:33;15.13;;;7.78;;
53873;SDS011;62246;50.938;4.058;2022-12-07T02:01:59;17.63;;;7.22;;
53873;SDS011;62246;50.938;4.058;2022-12-07T02:04:27;28.02;;;8.77;;
53873;SDS011;62246;50.938;4.058;2022-12-07T02:06:53;24.98;;;8.70;;
53873;SDS011;62246;50.938;4.058;2022-12-07T02:09:20;19.90;;;8.18;;
53873;SDS011;62246;50.938;4.058;2022-12-07T02:11:45;19.70;;;7.07;;
53873;SDS011;62246;50.938;4.058;2022-12-07T02:14:11;22.23;;;8.13;;
53873;SDS011;62246;50.938;4.058;2022-12-07T02:16:44;21.88;;;7.30;;
53873;SDS011;62246;50.938;4.058;2022-12-07T02:27:28;17.25;;;7.05;;
53873;SDS011;62246;50.938;4.058;2022-12-07T02:30:14;14.32;;;7.00;;
53873;SDS011;62246;50.938;4.058;2022-12-07T02:33:03;22.65;;;8.00;;
53873;SDS011;62246;50.938;4.058;2022-12-07T02:35:34;18.77;;;7.95;;
53873;SDS011;62246;50.938;4.058;2022-12-07T02:38:11;17.38;;;7.30;;
53873;SDS011;62246;50.938;4.058;2022-12-07T02:46:06;19.27;;;7.10;;
53873;SDS011;62246;50.938;4.058;2022-12-07T02:48:35;14.52;;;6.55;;
53873;SDS011;62246;50.938;4.058;2022-12-07T02:51:04;17.23;;;7.38;;
53873;SDS011;62246;50.938;4.058;2022-12-07T03:07:07;15.63;;;6.97;;
53873;SDS011;62246;50.938;4.058;2022-12-07T03:15:39;13.43;;;6.97;;
53873;SDS011;62246;50.938;4.058;2022-12-07T03:18:11;14.63;;;6.88;;
53873;SDS011;62246;50.938;4.058;2022-12-07T03:20:40;13.15;;;6.60;;
53873;SDS011;62246;50.938;4.058;2022-12-07T03:23:07;15.95;;;7.53;;
53873;SDS011;62246;50.938;4.058;2022-12-07T03:25:37;15.73;;;7.43;;
53873;SDS011;62246;50.938;4.058;2022-12-07T03:30:44;11.57;;;6.18;;
53873;SDS011;62246;50.938;4.058;2022-12-07T03:35:58;14.05;;;6.75;;
53873;SDS011;62246;50.938;4.058;2022-12-07T03:38:40;13.02;;;6.13;;
53873;SDS011;62246;50.938;4.058;2022-12-07T03:41:24;13.65;;;6.68;;
53873;SDS011;62246;50.938;4.058;2022-12-07T03:43:53;44.75;;;10.65;;
53873;SDS011;62246;50.938;4.058;2022-12-07T03:46:23;19.30;;;7.97;;
53873;SDS011;62246;50.938;4.058;2022-12-07T03:49:10;15.07;;;6.75;;
53873;SDS011;62246;50.938;4.058;2022-12-07T03:52:01;15.82;;;6.95;;
53873;SDS011;62246;50.938;4.058;2022-12-07T03:54:37;13.55;;;7.78;;
53873;SDS011;62246;50.938;4.058;2022-12-07T03:57:04;13.52;;;6.82;;
53873;SDS011;62246;50.938;4.058;2022-12-07T03:59:31;17.90;;;7.82;;
53873;SDS011;62246;50.938;4.058;2022-12-07T04:02:01;14.57;;;7.40;;
53873;SDS011;62246;50.938;4.058;2022-12-07T04:04:28;15.90;;;7.55;;
53873;SDS011;62246;50.938;4.058;2022-12-07T04:06:54;20.50;;;8.20;;
53873;SDS011;62246;50.938;4.058;2022-12-07T04:09:20;18.05;;;8.57;;
53873;SDS011;62246;50.938;4.058;2022-12-07T04:11:45;17.95;;;8.38;;
53873;SDS011;62246;50.938;4.058;2022-12-07T04:14:11;15.18;;;7.13;;
53873;SDS011;62246;50.938;4.058;2022-12-07T04:19:14;14.02;;;7.22;;
53873;SDS011;62246;50.938;4.058;2022-12-07T04:21:40;16.52;;;7.88;;
53873;SDS011;62246;50.938;4.058;2022-12-07T04:24:06;16.45;;;8.23;;
53873;SDS011;62246;50.938;4.058;2022-12-07T04:26:31;15.50;;;8.13;;
53873;SDS011;62246;50.938;4.058;2022-12-07T04:28:57;18.27;;;8.77;;
53873;SDS011;62246;50.938;4.058;2022-12-07T04:31:22;15.45;;;7.95;;
53873;SDS011;62246;50.938;4.058;2022-12-07T04:33:48;16.77;;;8.18;;
53873;SDS011;62246;50.938;4.058;2022-12-07T04:36:14;13.75;;;7.97;;
53873;SDS011;62246;50.938;4.058;2022-12-07T04:38:39;17.05;;;8.43;;
53873;SDS011;62246;50.938;4.058;2022-12-07T04:41:08;19.50;;;9.68;;
53873;SDS011;62246;50.938;4.058;2022-12-07T04:43:34;13.75;;;7.43;;
53873;SDS011;62246;50.938;4.058;2022-12-07T04:46:01;16.02;;;7.97;;
53873;SDS011;62246;50.938;4.058;2022-12-07T04:48:27;11.48;;;6.88;;
53873;SDS011;62246;50.938;4.058;2022-12-07T04:50:53;16.40;;;7.85;;
53873;SDS011;62246;50.938;4.058;2022-12-07T04:53:18;14.13;;;7.25;;
53873;SDS011;62246;50.938;4.058;2022-12-07T04:55:44;14.07;;;7.45;;
53873;SDS011;62246;50.938;4.058;2022-12-07T04:58:11;12.10;;;6.97;;
53873;SDS011;62246;50.938;4.058;2022-12-07T05:00:37;14.90;;;7.70;;
53873;SDS011;62246;50.938;4.058;2022-12-07T05:03:03;12.55;;;6.97;;
53873;SDS011;62246;50.938;4.058;2022-12-07T05:05:28;15.02;;;7.88;;
53873;SDS011;62246;50.938;4.058;2022-12-07T05:07:54;14.85;;;7.50;;
53873;SDS011;62246;50.938;4.058;2022-12-07T05:10:20;13.55;;;6.90;;
53873;SDS011;62246;50.938;4.058;2022-12-07T05:12:45;13.50;;;7.13;;
53873;SDS011;62246;50.938;4.058;2022-12-07T05:15:11;15.32;;;7.40;;
53873;SDS011;62246;50.938;4.058;2022-12-07T05:17:37;16.38;;;8.07;;
53873;SDS011;62246;50.938;4.058;2022-12-07T05:20:03;11.95;;;6.93;;
53873;SDS011;62246;50.938;4.058;2022-12-07T05:22:29;14.32;;;7.30;;
53873;SDS011;62246;50.938;4.058;2022-12-07T05:24:55;17.02;;;8.57;;
53873;SDS011;62246;50.938;4.058;2022-12-07T05:27:21;17.02;;;8.60;;
53873;SDS011;62246;50.938;4.058;2022-12-07T05:29:46;14.95;;;7.72;;
53873;SDS011;62246;50.938;4.058;2022-12-07T05:32:12;15.23;;;7.78;;
53873;SDS011;62246;50.938;4.058;2022-12-07T05:34:37;18.33;;;8.35;;
53873;SDS011;62246;50.938;4.058;2022-12-07T05:37:03;24.77;;;8.73;;
53873;SDS011;62246;50.938;4.058;2022-12-07T05:39:28;21.80;;;9.60;;
53873;SDS011;62246;50.938;4.058;2022-12-07T05:41:54;18.85;;;10.00;;
53873;SDS011;62246;50.938;4.058;2022-12-07T05:44:40;23.45;;;10.38;;
53873;SDS011;62246;50.938;4.058;2022-12-07T05:47:10;15.15;;;8.90;;
53873;SDS011;62246;50.938;4.058;2022-12-07T05:49:39;19.35;;;10.35;;
53873;SDS011;62246;50.938;4.058;2022-12-07T05:52:05;22.90;;;11.13;;
53873;SDS011;62246;50.938;4.058;2022-12-07T05:54:31;18.90;;;10.02;;
53873;SDS011;62246;50.938;4.058;2022-12-07T05:56:57;22.33;;;11.45;;
53873;SDS011;62246;50.938;4.058;2022-12-07T05:59:22;25.85;;;12.20;;
53873;SDS011;62246;50.938;4.058;2022-12-07T06:01:49;26.02;;;12.85;;
53873;SDS011;62246;50.938;4.058;2022-12-07T06:04:16;27.17;;;11.25;;
53873;SDS011;62246;50.938;4.058;2022-12-07T06:06:43;28.38;;;11.02;;
53873;SDS011;62246;50.938;4.058;2022-12-07T06:09:08;25.08;;;11.98;;
53873;SDS011;62246;50.938;4.058;2022-12-07T06:11:34;21.48;;;10.50;;
53873;SDS011;62246;50.938;4.058;2022-12-07T06:14:18;18.67;;;9.70;;
53873;SDS011;62246;50.938;4.058;2022-12-07T06:16:43;17.65;;;8.68;;
53873;SDS011;62246;50.938;4.058;2022-12-07T06:19:09;21.35;;;9.38;;
53873;SDS011;62246;50.938;4.058;2022-12-07T06:21:34;18.35;;;9.10;;
53873;SDS011;62246;50.938;4.058;2022-12-07T06:24:00;22.58;;;9.40;;
53873;SDS011;62246;50.938;4.058;2022-12-07T06:26:26;21.73;;;8.00;;
53873;SDS011;62246;50.938;4.058;2022-12-07T06:28:52;19.92;;;9.05;;
53873;SDS011;62246;50.938;4.058;2022-12-07T06:31:17;18.33;;;8.75;;
53873;SDS011;62246;50.938;4.058;2022-12-07T06:33:43;19.08;;;8.32;;
53873;SDS011;62246;50.938;4.058;2022-12-07T06:36:09;18.63;;;9.13;;
53873;SDS011;62246;50.938;4.058;2022-12-07T06:38:34;14.05;;;8.00;;
53873;SDS011;62246;50.938;4.058;2022-12-07T06:41:00;15.50;;;7.30;;
53873;SDS011;62246;50.938;4.058;2022-12-07T06:43:26;23.70;;;9.38;;
53873;SDS011;62246;50.938;4.058;2022-12-07T06:45:52;22.83;;;10.65;;
53873;SDS011;62246;50.938;4.058;2022-12-07T06:48:18;26.42;;;11.63;;
53873;SDS011;62246;50.938;4.058;2022-12-07T06:50:47;27.67;;;12.38;;
53873;SDS011;62246;50.938;4.058;2022-12-07T06:53:13;23.50;;;10.50;;
53873;SDS011;62246;50.938;4.058;2022-12-07T06:55:40;21.33;;;9.57;;
53873;SDS011;62246;50.938;4.058;2022-12-07T06:58:06;20.50;;;9.90;;
53873;SDS011;62246;50.938;4.058;2022-12-07T07:00:31;18.02;;;9.60;;
53873;SDS011;62246;50.938;4.058;2022-12-07T07:02:59;19.42;;;9.57;;
53873;SDS011;62246;50.938;4.058;2022-12-07T07:05:25;20.33;;;9.70;;
53873;SDS011;62246;50.938;4.058;2022-12-07T07:07:50;24.55;;;10.98;;
53873;SDS011;62246;50.938;4.058;2022-12-07T07:10:18;21.42;;;10.98;;
53873;SDS011;62246;50.938;4.058;2022-12-07T07:12:44;28.30;;;10.93;;
53873;SDS011;62246;50.938;4.058;2022-12-07T07:15:09;21.58;;;10.07;;
53873;SDS011;62246;50.938;4.058;2022-12-07T07:17:36;19.73;;;9.80;;
53873;SDS011;62246;50.938;4.058;2022-12-07T07:20:02;18.30;;;9.48;;
53873;SDS011;62246;50.938;4.058;2022-12-07T07:22:28;21.70;;;9.60;;
53873;SDS011;62246;50.938;4.058;2022-12-07T07:24:53;17.80;;;10.38;;
53873;SDS011;62246;50.938;4.058;2022-12-07T07:27:19;20.55;;;9.00;;
53873;SDS011;62246;50.938;4.058;2022-12-07T07:29:44;22.25;;;9.23;;
53873;SDS011;62246;50.938;4.058;2022-12-07T07:32:09;22.55;;;9.07;;
53873;SDS011;62246;50.938;4.058;2022-12-07T07:34:35;21.83;;;10.02;;
53873;SDS011;62246;50.938;4.058;2022-12-07T07:37:00;23.23;;;9.55;;
53873;SDS011;62246;50.938;4.058;2022-12-07T07:39:26;21.08;;;8.57;;
53873;SDS011;62246;50.938;4.058;2022-12-07T07:41:51;25.88;;;9.43;;
53873;SDS011;62246;50.938;4.058;2022-12-07T07:44:17;23.67;;;8.82;;
53873;SDS011;62246;50.938;4.058;2022-12-07T07:46:42;20.13;;;7.97;;
53873;SDS011;62246;50.938;4.058;2022-12-07T07:49:09;18.42;;;8.48;;
53873;SDS011;62246;50.938;4.058;2022-12-07T07:51:36;19.55;;;9.10;;
53873;SDS011;62246;50.938;4.058;2022-12-07T07:54:01;16.52;;;7.82;;
53873;SDS011;62246;50.938;4.058;2022-12-07T07:56:27;20.85;;;8.52;;
53873;SDS011;62246;50.938;4.058;2022-12-07T07:58:53;18.95;;;7.88;;
53873;SDS011;62246;50.938;4.058;2022-12-07T08:01:19;17.55;;;8.38;;
53873;SDS011;62246;50.938;4.058;2022-12-07T08:03:45;17.83;;;8.15;;
53873;SDS011;62246;50.938;4.058;2022-12-07T08:06:12;22.05;;;8.85;;
53873;SDS011;62246;50.938;4.058;2022-12-07T08:08:38;18.73;;;8.75;;
53873;SDS011;62246;50.938;4.058;2022-12-07T08:11:06;23.05;;;8.45;;
53873;SDS011;62246;50.938;4.058;2022-12-07T08:13:32;17.13;;;8.60;;
53873;SDS011;62246;50.938;4.058;2022-12-07T08:15:58;17.85;;;8.93;;
53873;SDS011;62246;50.938;4.058;2022-12-07T08:18:27;20.13;;;8.77;;
53873;SDS011;62246;50.938;4.058;2022-12-07T08:20:58;20.63;;;8.65;;
53873;SDS011;62246;50.938;4.058;2022-12-07T08:23:24;20.80;;;8.88;;
53873;SDS011;62246;50.938;4.058;2022-12-07T08:25:50;17.80;;;7.55;;
53873;SDS011;62246;50.938;4.058;2022-12-07T08:28:15;15.85;;;6.82;;
53873;SDS011;62246;50.938;4.058;2022-12-07T08:30:41;17.25;;;7.20;;
53873;SDS011;62246;50.938;4.058;2022-12-07T08:33:06;16.50;;;7.82;;
53873;SDS011;62246;50.938;4.058;2022-12-07T08:35:33;17.42;;;7.82;;
53873;SDS011;62246;50.938;4.058;2022-12-07T08:37:59;17.33;;;7.00;;
53873;SDS011;62246;50.938;4.058;2022-12-07T08:40:24;20.60;;;7.88;;
53873;SDS011;62246;50.938;4.058;2022-12-07T08:42:50;18.95;;;7.60;;
53873;SDS011;62246;50.938;4.058;2022-12-07T08:45:17;21.17;;;8.05;;
53873;SDS011;62246;50.938;4.058;2022-12-07T08:47:46;21.08;;;8.25;;
53873;SDS011;62246;50.938;4.058;2022-12-07T08:50:19;18.27;;;7.97;;
53873;SDS011;62246;50.938;4.058;2022-12-07T08:52:48;17.23;;;7.85;;
53873;SDS011;62246;50.938;4.058;2022-12-07T08:55:16;17.17;;;8.23;;
53873;SDS011;62246;50.938;4.058;2022-12-07T08:57:42;17.77;;;7.13;;
53873;SDS011;62246;50.938;4.058;2022-12-07T09:00:08;23.40;;;8.55;;
53873;SDS011;62246;50.938;4.058;2022-12-07T09:02:34;19.70;;;8.38;;
53873;SDS011;62246;50.938;4.058;2022-12-07T09:04:59;16.95;;;6.93;;
53873;SDS011;62246;50.938;4.058;2022-12-07T09:07:25;17.60;;;8.80;;
53873;SDS011;62246;50.938;4.058;2022-12-07T09:09:51;19.42;;;8.20;;
53873;SDS011;62246;50.938;4.058;2022-12-07T09:12:16;17.30;;;8.20;;
53873;SDS011;62246;50.938;4.058;2022-12-07T09:14:42;18.58;;;7.68;;
53873;SDS011;62246;50.938;4.058;2022-12-07T09:17:08;17.40;;;8.45;;
53873;SDS011;62246;50.938;4.058;2022-12-07T09:19:35;15.82;;;7.20;;
53873;SDS011;62246;50.938;4.058;2022-12-07T09:22:01;17.85;;;7.50;;
53873;SDS011;62246;50.938;4.058;2022-12-07T09:24:27;16.27;;;7.47;;
53873;SDS011;62246;50.938;4.058;2022-12-07T09:26:52;19.83;;;7.63;;
53873;SDS011;62246;50.938;4.058;2022-12-07T09:29:18;14.88;;;6.72;;
53873;SDS011;62246;50.938;4.058;2022-12-07T09:31:43;14.73;;;6.38;;
53873;SDS011;62246;50.938;4.058;2022-12-07T09:34:08;19.95;;;7.35;;
53873;SDS011;62246;50.938;4.058;2022-12-07T09:36:34;15.35;;;5.50;;
53873;SDS011;62246;50.938;4.058;2022-12-07T09:39:00;13.65;;;5.53;;
53873;SDS011;62246;50.938;4.058;2022-12-07T09:41:26;15.10;;;5.90;;
53873;SDS011;62246;50.938;4.058;2022-12-07T09:43:52;18.40;;;8.82;;
53873;SDS011;62246;50.938;4.058;2022-12-07T09:46:28;19.02;;;8.23;;
53873;SDS011;62246;50.938;4.058;2022-12-07T09:48:58;15.75;;;7.43;;
53873;SDS011;62246;50.938;4.058;2022-12-07T09:51:24;16.60;;;5.68;;
53873;SDS011;62246;50.938;4.058;2022-12-07T09:53:50;16.25;;;6.05;;
53873;SDS011;62246;50.938;4.058;2022-12-07T09:56:17;17.55;;;6.38;;
53873;SDS011;62246;50.938;4.058;2022-12-07T09:58:44;15.15;;;6.05;;
53873;SDS011;62246;50.938;4.058;2022-12-07T10:01:15;15.38;;;5.82;;
53873;SDS011;62246;50.938;4.058;2022-12-07T10:03:50;13.90;;;5.03;;
53873;SDS011;62246;50.938;4.058;2022-12-07T10:06:17;19.85;;;5.43;;
53873;SDS011;62246;50.938;4.058;2022-12-07T10:08:42;12.35;;;5.38;;
53873;SDS011;62246;50.938;4.058;2022-12-07T10:11:08;14.07;;;5.50;;
53873;SDS011;62246;50.938;4.058;2022-12-07T10:16:05;14.52;;;3.95;;
53873;SDS011;62246;50.938;4.058;2022-12-07T10:18:50;13.75;;;5.00;;
53873;SDS011;62246;50.938;4.058;2022-12-07T10:21:17;14.70;;;5.07;;
53873;SDS011;62246;50.938;4.058;2022-12-07T10:31:56;14.93;;;5.50;;
53873;SDS011;62246;50.938;4.058;2022-12-07T10:34:26;16.60;;;5.82;;
53873;SDS011;62246;50.938;4.058;2022-12-07T10:36:54;19.42;;;6.53;;
53873;SDS011;62246;50.938;4.058;2022-12-07T10:44:48;12.57;;;3.45;;
53873;SDS011;62246;50.938;4.058;2022-12-07T10:50:11;11.60;;;4.28;;
53873;SDS011;62246;50.938;4.058;2022-12-07T11:03:50;13.75;;;4.80;;
53873;SDS011;62246;50.938;4.058;2022-12-07T11:09:00;10.85;;;4.00;;
53873;SDS011;62246;50.938;4.058;2022-12-07T11:14:24;8.90;;;2.53;;
53873;SDS011;62246;50.938;4.058;2022-12-07T11:17:13;7.68;;;3.08;;
53873;SDS011;62246;50.938;4.058;2022-12-07T11:22:36;9.05;;;2.50;;
53873;SDS011;62246;50.938;4.058;2022-12-07T11:31:21;7.03;;;2.22;;
53873;SDS011;62246;50.938;4.058;2022-12-07T11:33:57;11.63;;;6.68;;
53873;SDS011;62246;50.938;4.058;2022-12-07T11:42:01;7.90;;;2.33;;
53873;SDS011;62246;50.938;4.058;2022-12-07T11:44:36;9.63;;;2.60;;
53873;SDS011;62246;50.938;4.058;2022-12-07T11:52:32;6.50;;;2.30;;
53873;SDS011;62246;50.938;4.058;2022-12-07T11:55:16;7.90;;;2.58;;
53873;SDS011;62246;50.938;4.058;2022-12-07T11:58:20;10.00;;;2.30;;
53873;SDS011;62246;50.938;4.058;2022-12-07T12:00:50;10.30;;;2.43;;
53873;SDS011;62246;50.938;4.058;2022-12-07T12:03:27;13.05;;;2.55;;
53873;SDS011;62246;50.938;4.058;2022-12-07T12:05:59;9.25;;;2.38;;
53873;SDS011;62246;50.938;4.058;2022-12-07T12:10:58;9.65;;;2.85;;
53873;SDS011;62246;50.938;4.058;2022-12-07T12:13:46;7.10;;;3.03;;
53873;SDS011;62246;50.938;4.058;2022-12-07T12:21:44;12.60;;;4.13;;
53873;SDS011;62246;50.938;4.058;2022-12-07T12:24:17;14.32;;;4.40;;
53873;SDS011;62246;50.938;4.058;2022-12-07T12:26:51;16.15;;;4.60;;
53873;SDS011;62246;50.938;4.058;2022-12-07T12:29:29;9.25;;;3.72;;
53873;SDS011;62246;50.938;4.058;2022-12-07T12:32:19;12.70;;;4.28;;
53873;SDS011;62246;50.938;4.058;2022-12-07T12:42:56;6.20;;;2.10;;
53873;SDS011;62246;50.938;4.058;2022-12-07T12:45:29;6.32;;;2.15;;
53873;SDS011;62246;50.938;4.058;2022-12-07T12:50:26;5.80;;;1.60;;
53873;SDS011;62246;50.938;4.058;2022-12-07T13:00:43;6.13;;;1.10;;
53873;SDS011;62246;50.938;4.058;2022-12-07T13:03:26;2.67;;;0.80;;
53873;SDS011;62246;50.938;4.058;2022-12-07T13:08:58;9.13;;;2.10;;
53873;SDS011;62246;50.938;4.058;2022-12-07T13:11:27;4.22;;;1.52;;
53873;SDS011;62246;50.938;4.058;2022-12-07T13:16:59;6.50;;;1.85;;
53873;SDS011;62246;50.938;4.058;2022-12-07T13:25:18;5.65;;;1.80;;
53873;SDS011;62246;50.938;4.058;2022-12-07T13:28:12;11.32;;;6.47;;
53873;SDS011;62246;50.938;4.058;2022-12-07T13:30:45;7.72;;;2.75;;
53873;SDS011;62246;50.938;4.058;2022-12-07T13:33:32;11.63;;;4.35;;
53873;SDS011;62246;50.938;4.058;2022-12-07T13:36:00;7.95;;;2.17;;
53873;SDS011;62246;50.938;4.058;2022-12-07T13:38:27;6.88;;;1.80;;
53873;SDS011;62246;50.938;4.058;2022-12-07T13:41:10;7.50;;;1.92;;
53873;SDS011;62246;50.938;4.058;2022-12-07T13:43:42;12.90;;;4.82;;
53873;SDS011;62246;50.938;4.058;2022-12-07T13:46:09;8.88;;;3.63;;
53873;SDS011;62246;50.938;4.058;2022-12-07T13:48:43;7.95;;;1.73;;
53873;SDS011;62246;50.938;4.058;2022-12-07T13:51:17;9.20;;;1.73;;
53873;SDS011;62246;50.938;4.058;2022-12-07T13:53:49;4.03;;;1.38;;
53873;SDS011;62246;50.938;4.058;2022-12-07T13:56:25;8.27;;;1.42;;
53873;SDS011;62246;50.938;4.058;2022-12-07T13:58:57;3.15;;;0.90;;
53873;SDS011;62246;50.938;4.058;2022-12-07T14:01:23;2.83;;;0.60;;
53873;SDS011;62246;50.938;4.058;2022-12-07T14:03:50;4.03;;;0.88;;
53873;SDS011;62246;50.938;4.058;2022-12-07T14:06:25;3.08;;;1.00;;
53873;SDS011;62246;50.938;4.058;2022-12-07T14:09:08;2.17;;;0.88;;
53873;SDS011;62246;50.938;4.058;2022-12-07T14:14:30;5.18;;;1.00;;
53873;SDS011;62246;50.938;4.058;2022-12-07T14:16:58;3.95;;;1.02;;
53873;SDS011;62246;50.938;4.058;2022-12-07T14:22:32;5.57;;;2.30;;
53873;SDS011;62246;50.938;4.058;2022-12-07T14:27:48;5.72;;;1.83;;
53873;SDS011;62246;50.938;4.058;2022-12-07T14:30:20;5.50;;;1.73;;
53873;SDS011;62246;50.938;4.058;2022-12-07T14:32:46;5.90;;;2.35;;
53873;SDS011;62246;50.938;4.058;2022-12-07T14:35:16;6.65;;;2.22;;
53873;SDS011;62246;50.938;4.058;2022-12-07T14:37:44;5.07;;;1.70;;
53873;SDS011;62246;50.938;4.058;2022-12-07T14:40:16;5.57;;;2.10;;
53873;SDS011;62246;50.938;4.058;2022-12-07T14:42:45;6.25;;;2.45;;
53873;SDS011;62246;50.938;4.058;2022-12-07T14:45:14;6.00;;;2.25;;
53873;SDS011;62246;50.938;4.058;2022-12-07T14:47:42;7.43;;;2.88;;
53873;SDS011;62246;50.938;4.058;2022-12-07T14:50:08;7.03;;;2.72;;
53873;SDS011;62246;50.938;4.058;2022-12-07T14:52:36;7.88;;;3.38;;
53873;SDS011;62246;50.938;4.058;2022-12-07T14:55:01;13.32;;;3.70;;
53873;SDS011;62246;50.938;4.058;2022-12-07T14:57:27;8.27;;;3.30;;
53873;SDS011;62246;50.938;4.058;2022-12-07T14:59:52;15.00;;;4.53;;
53873;SDS011;62246;50.938;4.058;2022-12-07T15:02:18;12.77;;;4.20;;
53873;SDS011;62246;50.938;4.058;2022-12-07T15:04:43;9.93;;;4.07;;
53873;SDS011;62246;50.938;4.058;2022-12-07T15:07:12;8.35;;;3.15;;
53873;SDS011;62246;50.938;4.058;2022-12-07T15:09:43;8.40;;;3.20;;
53873;SDS011;62246;50.938;4.058;2022-12-07T15:12:08;11.68;;;3.70;;
53873;SDS011;62246;50.938;4.058;2022-12-07T15:14:34;10.50;;;3.80;;
53873;SDS011;62246;50.938;4.058;2022-12-07T15:17:00;9.73;;;3.55;;
53873;SDS011;62246;50.938;4.058;2022-12-07T15:19:26;11.98;;;4.15;;
53873;SDS011;62246;50.938;4.058;2022-12-07T15:21:52;12.70;;;4.93;;
53873;SDS011;62246;50.938;4.058;2022-12-07T15:24:18;11.07;;;4.90;;
53873;SDS011;62246;50.938;4.058;2022-12-07T15:26:45;11.20;;;4.70;;
53873;SDS011;62246;50.938;4.058;2022-12-07T15:29:11;17.25;;;7.35;;
53873;SDS011;62246;50.938;4.058;2022-12-07T15:31:37;16.33;;;6.80;;
53873;SDS011;62246;50.938;4.058;2022-12-07T15:34:03;14.50;;;5.60;;
53873;SDS011;62246;50.938;4.058;2022-12-07T15:36:30;23.77;;;10.23;;
53873;SDS011;62246;50.938;4.058;2022-12-07T15:38:56;72.43;;;27.33;;
53873;SDS011;62246;50.938;4.058;2022-12-07T15:41:21;16.80;;;6.05;;
53873;SDS011;62246;50.938;4.058;2022-12-07T15:43:47;18.63;;;6.80;;
53873;SDS011;62246;50.938;4.058;2022-12-07T15:46:33;13.13;;;5.45;;
53873;SDS011;62246;50.938;4.058;2022-12-07T15:49:00;16.08;;;5.57;;
53873;SDS011;62246;50.938;4.058;2022-12-07T15:51:28;15.27;;;7.18;;
53873;SDS011;62246;50.938;4.058;2022-12-07T15:53:53;18.60;;;8.13;;
53873;SDS011;62246;50.938;4.058;2022-12-07T15:56:19;23.60;;;11.40;;
53873;SDS011;62246;50.938;4.058;2022-12-07T15:58:45;22.58;;;11.63;;
53873;SDS011;62246;50.938;4.058;2022-12-07T16:01:15;18.83;;;9.63;;
53873;SDS011;62246;50.938;4.058;2022-12-07T16:03:43;19.33;;;9.30;;
53873;SDS011;62246;50.938;4.058;2022-12-07T16:06:09;19.35;;;6.82;;
53873;SDS011;62246;50.938;4.058;2022-12-07T16:08:35;15.07;;;5.93;;
53873;SDS011;62246;50.938;4.058;2022-12-07T16:11:04;16.63;;;6.60;;
53873;SDS011;62246;50.938;4.058;2022-12-07T16:13:30;11.57;;;5.00;;
53873;SDS011;62246;50.938;4.058;2022-12-07T16:15:56;16.27;;;7.45;;
53873;SDS011;62246;50.938;4.058;2022-12-07T16:18:21;13.23;;;5.40;;
53873;SDS011;62246;50.938;4.058;2022-12-07T16:20:48;19.08;;;7.85;;
53873;SDS011;62246;50.938;4.058;2022-12-07T16:23:14;12.50;;;5.25;;
53873;SDS011;62246;50.938;4.058;2022-12-07T16:25:40;14.18;;;5.50;;
53873;SDS011;62246;50.938;4.058;2022-12-07T16:28:05;13.70;;;5.55;;
53873;SDS011;62246;50.938;4.058;2022-12-07T16:30:31;17.30;;;6.32;;
53873;SDS011;62246;50.938;4.058;2022-12-07T16:32:57;15.75;;;6.82;;
53873;SDS011;62246;50.938;4.058;2022-12-07T16:35:22;13.07;;;5.32;;
53873;SDS011;62246;50.938;4.058;2022-12-07T16:37:48;15.85;;;5.72;;
53873;SDS011;62246;50.938;4.058;2022-12-07T16:40:13;18.92;;;5.45;;
53873;SDS011;62246;50.938;4.058;2022-12-07T16:42:38;14.98;;;5.85;;
53873;SDS011;62246;50.938;4.058;2022-12-07T16:45:04;14.85;;;5.72;;
53873;SDS011;62246;50.938;4.058;2022-12-07T16:47:30;13.50;;;5.70;;
53873;SDS011;62246;50.938;4.058;2022-12-07T16:49:56;16.17;;;5.35;;
53873;SDS011;62246;50.938;4.058;2022-12-07T16:52:21;15.88;;;6.53;;
53873;SDS011;62246;50.938;4.058;2022-12-07T16:54:47;18.80;;;6.10;;
53873;SDS011;62246;50.938;4.058;2022-12-07T16:57:14;13.65;;;5.45;;
53873;SDS011;62246;50.938;4.058;2022-12-07T16:59:41;12.43;;;4.20;;
53873;SDS011;62246;50.938;4.058;2022-12-07T17:02:08;11.15;;;4.50;;
53873;SDS011;62246;50.938;4.058;2022-12-07T17:04:36;9.68;;;4.57;;
53873;SDS011;62246;50.938;4.058;2022-12-07T17:07:04;15.60;;;5.25;;
53873;SDS011;62246;50.938;4.058;2022-12-07T17:09:30;10.20;;;3.60;;